createdAt,value
2018-10-18T00:00:01.898Z,11.50
2018-10-18T00:02:30.922Z,11.50
2018-10-18T00:04:59.910Z,11.50
2018-10-18T00:07:28.951Z,11.60
2018-10-18T00:09:57.966Z,11.50
2018-10-18T00:12:26.978Z,11.40
2018-10-18T00:14:56.040Z,11.20
2018-10-18T00:17:30.444Z,11.20
2018-10-18T00:19:59.461Z,11.20
2018-10-18T00:22:28.467Z,11.20
2018-10-18T00:24:57.459Z,11.40
2018-10-18T00:27:26.486Z,11.40
2018-10-18T00:29:55.963Z,11.20
2018-10-18T00:32:24.965Z,11.20
2018-10-18T00:34:53.995Z,11.30
2018-10-18T00:37:23.014Z,11.30
2018-10-18T00:39:52.036Z,11.40
2018-10-18T00:42:21.091Z,11.30
2018-10-18T00:44:50.103Z,11.30
2018-10-18T00:47:19.150Z,11.20
2018-10-18T00:49:48.174Z,11.10
2018-10-18T00:52:17.218Z,11.00
2018-10-18T00:54:46.214Z,11.00
2018-10-18T00:57:15.262Z,10.90
2018-10-18T00:59:44.256Z,10.80
2018-10-18T01:02:13.322Z,10.70
2018-10-18T01:04:42.290Z,10.60
2018-10-18T01:07:11.355Z,10.70
2018-10-18T01:09:40.358Z,10.70
2018-10-18T01:12:09.578Z,10.70
2018-10-18T01:14:38.463Z,10.80
2018-10-18T01:17:07.494Z,10.80
2018-10-18T01:19:37.528Z,10.90
2018-10-18T01:22:07.363Z,11.10
2018-10-18T01:24:37.042Z,11.10
2018-10-18T01:27:06.681Z,11.10
2018-10-18T01:29:35.672Z,11.00
2018-10-18T01:32:05.265Z,10.90
2018-10-18T01:34:34.247Z,10.80
2018-10-18T01:37:03.276Z,10.80
2018-10-18T01:39:32.251Z,10.70
2018-10-18T01:42:01.367Z,10.60
2018-10-18T01:44:30.279Z,10.50
2018-10-18T01:46:59.273Z,10.40
2018-10-18T01:49:28.298Z,10.40
2018-10-18T01:51:57.279Z,10.50
2018-10-18T01:54:26.301Z,10.70
2018-10-18T01:56:55.318Z,10.80
2018-10-18T01:59:24.351Z,10.70
2018-10-18T02:01:53.398Z,10.60
2018-10-18T02:04:22.426Z,10.60
2018-10-18T02:06:51.424Z,10.40
2018-10-18T02:09:20.443Z,10.30
2018-10-18T02:11:49.447Z,10.30
2018-10-18T02:14:18.506Z,10.40
2018-10-18T02:16:47.540Z,10.80
2018-10-18T02:19:16.632Z,10.80
2018-10-18T02:21:45.575Z,10.70
2018-10-18T02:24:14.711Z,10.80
2018-10-18T02:26:43.628Z,10.70
2018-10-18T02:29:12.663Z,10.50
2018-10-18T02:31:41.663Z,10.40
2018-10-18T02:34:10.691Z,10.30
2018-10-18T02:36:39.678Z,10.20
2018-10-18T02:39:10.027Z,10.00
2018-10-18T02:41:39.043Z,10.00
2018-10-18T02:44:08.112Z,10.00
2018-10-18T02:46:37.112Z,9.90
2018-10-18T02:49:06.172Z,9.90
2018-10-18T02:51:35.148Z,9.90
2018-10-18T02:54:04.222Z,9.90
2018-10-18T02:56:33.193Z,9.90
2018-10-18T02:59:02.216Z,10.30
2018-10-18T03:01:31.222Z,10.40
2018-10-18T03:04:00.257Z,10.40
2018-10-18T03:06:29.251Z,10.60
2018-10-18T03:08:58.287Z,10.50
2018-10-18T03:11:27.285Z,10.50
2018-10-18T03:13:56.350Z,10.30
2018-10-18T03:16:25.363Z,10.20
2018-10-18T03:18:54.422Z,10.00
2018-10-18T03:21:23.423Z,10.00
2018-10-18T03:23:52.475Z,10.00
2018-10-18T03:26:21.490Z,10.00
2018-10-18T03:28:50.515Z,10.20
2018-10-18T03:31:19.519Z,10.30
2018-10-18T03:33:48.556Z,10.20
2018-10-18T03:36:18.096Z,10.10
2018-10-18T03:38:47.100Z,10.00
2018-10-18T03:41:16.139Z,9.90
2018-10-18T03:43:45.150Z,9.90
2018-10-18T03:46:14.188Z,9.90
2018-10-18T03:48:43.170Z,9.90
2018-10-18T03:51:12.228Z,10.10
2018-10-18T03:53:41.241Z,10.00
2018-10-18T03:56:10.295Z,9.90
2018-10-18T03:58:39.308Z,9.80
2018-10-18T04:01:08.327Z,9.70
2018-10-18T04:03:37.324Z,9.70
2018-10-18T04:06:06.419Z,9.50
2018-10-18T04:08:35.378Z,9.60
2018-10-18T04:11:04.438Z,9.50
2018-10-18T04:13:33.480Z,9.50
2018-10-18T04:16:02.539Z,9.40
2018-10-18T04:18:31.572Z,9.40
2018-10-18T04:21:00.583Z,9.60
2018-10-18T04:23:33.233Z,9.80
2018-10-18T04:26:03.394Z,10.10
2018-10-18T04:28:33.076Z,9.90
2018-10-18T04:31:03.105Z,9.80
2018-10-18T04:33:32.278Z,9.90
2018-10-18T04:36:01.356Z,9.80
2018-10-18T04:38:30.335Z,9.70
2018-10-18T04:40:59.354Z,9.60
2018-10-18T04:43:28.367Z,9.60
2018-10-18T04:45:57.383Z,9.60
2018-10-18T04:48:26.472Z,9.70
2018-10-18T04:50:55.473Z,9.80
2018-10-18T04:53:24.464Z,9.80
2018-10-18T04:55:53.563Z,9.70
2018-10-18T04:58:22.540Z,9.50
2018-10-18T05:00:57.117Z,9.50
2018-10-18T05:03:26.102Z,9.60
2018-10-18T05:05:56.531Z,9.60
2018-10-18T05:08:26.375Z,9.60
2018-10-18T05:10:55.605Z,9.60
2018-10-18T05:13:24.805Z,9.50
2018-10-18T05:15:53.974Z,9.60
2018-10-18T05:18:23.623Z,9.80
2018-10-18T05:20:52.643Z,9.80
2018-10-18T05:23:21.688Z,9.80
2018-10-18T05:25:51.295Z,9.90
2018-10-18T05:28:20.603Z,9.80
2018-10-18T05:30:49.591Z,9.70
2018-10-18T05:33:18.646Z,9.60
2018-10-18T05:35:47.616Z,9.50
2018-10-18T05:38:16.665Z,9.50
2018-10-18T05:40:45.767Z,9.60
2018-10-18T05:43:15.005Z,9.60
2018-10-18T05:45:43.987Z,9.70
2018-10-18T05:48:13.059Z,9.60
2018-10-18T05:50:42.134Z,9.70
2018-10-18T05:53:11.262Z,9.70
2018-10-18T05:55:40.270Z,9.70
2018-10-18T05:58:09.331Z,9.70
2018-10-18T06:00:38.340Z,9.70
2018-10-18T06:03:07.408Z,9.70
2018-10-18T06:05:36.420Z,9.70
2018-10-18T06:08:05.601Z,9.90
2018-10-18T06:10:45.920Z,10.00
2018-10-18T06:13:15.054Z,10.00
2018-10-18T06:15:44.043Z,9.90
2018-10-18T06:18:13.078Z,9.90
2018-10-18T06:20:42.099Z,9.80
2018-10-18T06:23:12.564Z,9.90
2018-10-18T06:25:41.610Z,9.70
2018-10-18T06:28:10.667Z,9.90
2018-10-18T06:30:39.751Z,9.90
2018-10-18T06:33:08.767Z,10.10
2018-10-18T06:35:37.824Z,10.10
2018-10-18T06:38:06.846Z,10.20
2018-10-18T06:40:35.936Z,10.20
2018-10-18T06:43:05.189Z,10.10
2018-10-18T06:45:34.239Z,10.10
2018-10-18T06:48:03.353Z,10.20
2018-10-18T06:50:32.346Z,10.30
2018-10-18T06:53:01.456Z,10.20
2018-10-18T06:55:30.531Z,10.30
2018-10-18T06:57:59.588Z,10.40
2018-10-18T07:00:28.709Z,10.40
2018-10-18T07:02:57.713Z,10.40
2018-10-18T07:05:26.764Z,10.50
2018-10-18T07:07:55.754Z,10.60
2018-10-18T07:10:24.835Z,10.70
2018-10-18T07:12:53.839Z,10.70
2018-10-18T07:15:22.879Z,10.90
2018-10-18T07:17:51.974Z,10.90
2018-10-18T07:20:20.967Z,11.00
2018-10-18T07:22:49.976Z,11.10
2018-10-18T07:25:19.092Z,11.10
2018-10-18T07:27:48.061Z,11.20
2018-10-18T07:30:17.152Z,11.30
2018-10-18T07:32:46.130Z,11.40
2018-10-18T07:35:15.295Z,11.50
2018-10-18T07:37:44.395Z,11.50
2018-10-18T07:40:15.041Z,11.60
2018-10-18T07:42:44.224Z,11.80
2018-10-18T07:45:14.287Z,11.80
2018-10-18T07:47:43.956Z,11.80
2018-10-18T07:50:13.376Z,11.90
2018-10-18T07:52:42.410Z,12.00
2018-10-18T07:55:11.636Z,11.90
2018-10-18T07:57:40.650Z,11.80
2018-10-18T08:00:12.035Z,12.10
2018-10-18T08:02:41.376Z,12.10
2018-10-18T08:05:11.052Z,12.10
2018-10-18T08:07:40.091Z,12.40
2018-10-18T08:10:12.636Z,12.60
2018-10-18T08:12:41.747Z,12.90
2018-10-18T08:15:12.129Z,12.90
2018-10-18T08:17:41.697Z,13.10
2018-10-18T08:20:11.424Z,13.30
2018-10-18T08:22:40.834Z,13.80
2018-10-18T08:25:10.001Z,14.20
2018-10-18T08:27:38.969Z,14.60
2018-10-18T08:30:09.714Z,14.90
2018-10-18T08:32:38.798Z,15.20
2018-10-18T08:35:08.842Z,15.50
2018-10-18T08:37:38.006Z,15.80
2018-10-18T08:40:07.474Z,15.90
2018-10-18T08:42:36.586Z,15.70
2018-10-18T08:45:07.235Z,16.20
2018-10-18T08:47:36.433Z,16.30
2018-10-18T08:50:07.342Z,16.60
2018-10-18T08:52:36.407Z,16.70
2018-10-18T08:55:06.810Z,16.90
2018-10-18T08:57:36.875Z,16.80
2018-10-18T09:00:07.625Z,17.20
2018-10-18T09:02:36.707Z,17.20
2018-10-18T09:05:06.359Z,17.40
2018-10-18T09:07:35.456Z,17.80
2018-10-18T09:10:05.088Z,18.30
2018-10-18T09:12:34.157Z,18.70
2018-10-18T09:15:03.231Z,18.50
2018-10-18T09:17:32.284Z,18.00
2018-10-18T09:20:01.292Z,18.20
2018-10-18T09:22:30.396Z,18.50
2018-10-18T09:24:59.418Z,18.80
2018-10-18T09:27:28.530Z,19.50
2018-10-18T09:29:57.535Z,20.10
2018-10-18T09:32:26.575Z,20.30
2018-10-18T09:34:55.587Z,20.80
2018-10-18T09:37:24.898Z,20.90
2018-10-18T09:39:53.939Z,21.20
2018-10-18T09:42:23.017Z,21.40
2018-10-18T09:44:52.123Z,20.80
2018-10-18T09:47:21.104Z,20.90
2018-10-18T09:49:50.264Z,21.00
2018-10-18T09:52:19.410Z,20.60
2018-10-18T09:54:48.521Z,20.60
2018-10-18T09:57:17.592Z,21.00
2018-10-18T09:59:46.603Z,21.00
2018-10-18T10:02:20.980Z,21.00
2018-10-18T10:04:50.011Z,21.30
2018-10-18T10:07:20.811Z,21.50
2018-10-18T10:09:49.844Z,21.00
2018-10-18T10:12:19.148Z,21.20
2018-10-18T10:14:48.321Z,21.50
2018-10-18T10:17:17.400Z,21.30
2018-10-18T10:19:46.382Z,21.10
2018-10-18T10:22:15.500Z,21.20
2018-10-18T10:24:44.641Z,21.70
2018-10-18T10:27:13.668Z,22.20
2018-10-18T10:29:42.680Z,22.00
2018-10-18T10:32:11.715Z,21.80
2018-10-18T10:34:40.812Z,21.80
2018-10-18T10:37:09.904Z,22.00
2018-10-18T10:39:38.873Z,22.40
2018-10-18T10:42:08.137Z,22.00
2018-10-18T10:44:37.116Z,22.00
2018-10-18T10:47:06.579Z,22.10
2018-10-18T10:49:35.592Z,22.40
2018-10-18T10:52:04.700Z,22.50
2018-10-18T10:54:33.667Z,22.50
2018-10-18T10:57:02.819Z,22.60
2018-10-18T10:59:31.788Z,22.50
2018-10-18T11:02:00.898Z,22.80
2018-10-18T11:04:29.835Z,22.80
2018-10-18T11:06:58.884Z,22.60
2018-10-18T11:09:28.096Z,22.50
2018-10-18T11:11:57.048Z,22.40
2018-10-18T11:14:26.025Z,22.50
2018-10-18T11:16:55.099Z,23.20
2018-10-18T11:19:24.159Z,23.60
2018-10-18T11:21:53.211Z,23.10
2018-10-18T11:24:22.243Z,22.70
2018-10-18T11:26:51.271Z,22.60
2018-10-18T11:29:20.306Z,23.00
2018-10-18T11:31:49.323Z,22.70
2018-10-18T11:34:18.397Z,22.50
2018-10-18T11:36:47.399Z,22.60
2018-10-18T11:39:16.438Z,22.90
2018-10-18T11:41:45.415Z,23.40
2018-10-18T11:44:14.488Z,23.40
2018-10-18T11:46:43.482Z,22.30
2018-10-18T11:49:12.535Z,22.70
2018-10-18T11:51:41.684Z,23.00
2018-10-18T11:54:10.663Z,22.50
2018-10-18T11:56:39.608Z,22.50
2018-10-18T11:59:08.678Z,22.70
2018-10-18T12:01:37.705Z,23.10
2018-10-18T12:04:06.823Z,23.20
2018-10-18T12:06:35.841Z,23.70
2018-10-18T12:09:08.012Z,23.60
2018-10-18T12:11:37.120Z,23.70
2018-10-18T12:14:07.097Z,23.40
2018-10-18T12:16:36.121Z,23.80
2018-10-18T12:19:05.564Z,24.00
2018-10-18T12:21:34.522Z,24.30
2018-10-18T12:24:03.667Z,24.80
2018-10-18T12:26:32.705Z,24.90
2018-10-18T12:29:01.920Z,24.60
2018-10-18T12:31:30.941Z,24.70
2018-10-18T12:33:59.992Z,24.50
2018-10-18T12:36:29.030Z,24.40
2018-10-18T12:38:58.097Z,24.00
2018-10-18T12:41:27.359Z,23.70
2018-10-18T12:44:02.280Z,23.90
2018-10-18T12:46:37.749Z,23.60
2018-10-18T12:49:07.579Z,23.70
2018-10-18T12:51:41.953Z,23.50
2018-10-18T12:54:17.392Z,23.20
2018-10-18T12:56:49.575Z,23.20
2018-10-18T12:59:18.832Z,23.50
2018-10-18T13:01:47.951Z,23.10
2018-10-18T13:04:17.021Z,23.00
2018-10-18T13:06:46.046Z,22.60
2018-10-18T13:09:15.107Z,22.50
2018-10-18T13:11:44.147Z,22.40
2018-10-18T13:14:13.365Z,22.40
2018-10-18T13:16:42.335Z,22.70
2018-10-18T13:19:11.451Z,22.80
2018-10-18T13:21:40.490Z,21.90
2018-10-18T13:24:09.665Z,21.90
2018-10-18T13:26:38.735Z,22.00
2018-10-18T13:29:08.195Z,21.80
2018-10-18T13:31:37.249Z,21.70
2018-10-18T13:34:06.578Z,21.70
2018-10-18T13:36:35.603Z,21.50
2018-10-18T13:39:07.199Z,21.30
2018-10-18T13:41:36.279Z,21.40
2018-10-18T13:44:05.419Z,21.40
2018-10-18T13:46:34.710Z,21.30
2018-10-18T13:49:04.243Z,21.30
2018-10-18T13:51:33.358Z,21.10
2018-10-18T13:54:02.564Z,21.10
2018-10-18T13:56:31.580Z,21.10
2018-10-18T13:59:00.655Z,20.70
2018-10-18T14:01:29.722Z,20.50
2018-10-18T14:03:58.773Z,20.60
2018-10-18T14:06:27.831Z,20.40
2018-10-18T14:08:57.132Z,20.60
2018-10-18T14:11:26.199Z,20.60
2018-10-18T14:13:55.300Z,20.50
2018-10-18T14:16:24.331Z,20.50
2018-10-18T14:18:53.368Z,20.50
2018-10-18T14:21:22.477Z,20.60
2018-10-18T14:23:51.539Z,20.70
2018-10-18T14:26:20.633Z,20.70
2018-10-18T14:28:49.627Z,20.70
2018-10-18T14:31:18.678Z,20.70
2018-10-18T14:33:47.734Z,20.70
2018-10-18T14:36:17.293Z,20.60
2018-10-18T14:38:46.514Z,20.60
2018-10-18T14:41:15.570Z,20.60
2018-10-18T14:43:44.651Z,20.70
2018-10-18T14:46:14.060Z,20.60
2018-10-18T14:48:43.122Z,20.50
2018-10-18T14:51:12.227Z,20.50
2018-10-18T14:53:41.255Z,20.40
2018-10-18T14:56:10.496Z,20.40
2018-10-18T14:58:39.508Z,20.40
2018-10-18T15:01:08.600Z,20.30
2018-10-18T15:03:37.638Z,20.30
2018-10-18T15:06:07.044Z,20.30
2018-10-18T15:08:36.129Z,20.30
2018-10-18T15:11:05.819Z,20.20
2018-10-18T15:13:35.073Z,20.20
2018-10-18T15:16:04.175Z,20.10
2018-10-18T15:18:33.206Z,20.10
2018-10-18T15:21:02.316Z,20.00
2018-10-18T15:23:31.363Z,19.90
2018-10-18T15:26:00.445Z,19.80
2018-10-18T15:28:29.571Z,19.80
2018-10-18T15:30:58.691Z,19.70
2018-10-18T15:33:27.756Z,19.70
2018-10-18T15:35:56.824Z,19.60
2018-10-18T15:38:26.088Z,19.60
2018-10-18T15:40:55.061Z,19.60
2018-10-18T15:43:24.214Z,19.50
2018-10-18T15:45:53.324Z,19.40
2018-10-18T15:48:22.391Z,19.40
2018-10-18T15:50:51.793Z,19.30
2018-10-18T15:53:20.831Z,19.10
2018-10-18T15:55:49.858Z,19.00
2018-10-18T15:58:18.970Z,18.90
2018-10-18T16:00:48.142Z,18.80
2018-10-18T16:03:17.311Z,18.70
2018-10-18T16:05:46.243Z,18.70
2018-10-18T16:08:15.339Z,18.60
2018-10-18T16:10:44.399Z,18.40
2018-10-18T16:13:13.520Z,18.30
2018-10-18T16:15:42.921Z,18.10
2018-10-18T16:18:11.973Z,18.10
2018-10-18T16:20:41.005Z,17.90
2018-10-18T16:23:10.151Z,17.80
2018-10-18T16:25:39.619Z,17.70
2018-10-18T16:28:08.709Z,17.70
2018-10-18T16:30:37.732Z,17.60
2018-10-18T16:33:06.775Z,17.50
2018-10-18T16:35:35.757Z,17.50
2018-10-18T16:38:05.115Z,17.40
2018-10-18T16:40:34.160Z,17.30
2018-10-18T16:43:03.235Z,17.30
2018-10-18T16:45:32.246Z,17.40
2018-10-18T16:48:01.267Z,17.20
2018-10-18T16:50:30.316Z,17.00
2018-10-18T16:52:59.309Z,16.80
2018-10-18T16:55:28.420Z,16.60
2018-10-18T16:57:57.452Z,16.50
2018-10-18T17:00:26.443Z,16.30
2018-10-18T17:02:55.476Z,16.10
2018-10-18T17:05:24.486Z,16.00
2018-10-18T17:07:53.566Z,15.80
2018-10-18T17:10:22.731Z,15.80
2018-10-18T17:12:51.874Z,15.70
2018-10-18T17:15:20.889Z,15.70
2018-10-18T17:17:50.377Z,15.70
2018-10-18T17:20:19.399Z,15.60
2018-10-18T17:22:48.417Z,15.60
2018-10-18T17:25:17.454Z,15.50
2018-10-18T17:27:46.628Z,15.40
2018-10-18T17:30:15.628Z,15.40
2018-10-18T17:32:44.745Z,15.30
2018-10-18T17:35:13.719Z,15.20
2018-10-18T17:37:42.728Z,15.00
2018-10-18T17:40:11.790Z,15.00
2018-10-18T17:42:40.792Z,14.80
2018-10-18T17:45:11.022Z,14.90
2018-10-18T17:47:40.224Z,14.80
2018-10-18T17:50:09.816Z,14.70
2018-10-18T17:52:38.879Z,14.60
2018-10-18T17:55:08.620Z,14.50
2018-10-18T17:57:38.404Z,14.40
2018-10-18T18:00:11.692Z,14.30
2018-10-18T18:02:40.981Z,14.30
2018-10-18T18:05:11.063Z,14.20
2018-10-18T18:07:40.151Z,14.20
2018-10-18T18:10:11.988Z,14.20
2018-10-18T18:12:41.367Z,14.40
2018-10-18T18:15:10.835Z,14.40
2018-10-18T18:17:40.328Z,14.40
2018-10-18T18:20:10.995Z,14.20
2018-10-18T18:22:41.962Z,14.00
2018-10-18T18:25:12.051Z,14.00
2018-10-18T18:27:41.111Z,13.90
2018-10-18T18:30:12.917Z,13.90
2018-10-18T18:32:42.679Z,13.90
2018-10-18T18:35:11.839Z,13.90
2018-10-18T18:37:41.109Z,13.90
2018-10-18T18:40:10.478Z,13.80
2018-10-18T18:42:40.433Z,14.00
2018-10-18T18:45:14.955Z,13.90
2018-10-18T18:47:44.015Z,13.80
2018-10-18T18:50:14.135Z,13.80
2018-10-18T18:52:43.224Z,13.60
2018-10-18T18:55:12.471Z,13.50
2018-10-18T18:57:41.687Z,13.40
2018-10-18T19:00:11.971Z,13.50
2018-10-18T19:02:41.227Z,13.40
2018-10-18T19:05:10.284Z,13.30
2018-10-18T19:07:39.312Z,13.40
2018-10-18T19:10:08.878Z,13.50
2018-10-18T19:12:37.950Z,13.30
2018-10-18T19:15:08.295Z,13.20
2018-10-18T19:17:38.296Z,13.30
2018-10-18T19:20:07.422Z,13.20
2018-10-18T19:22:36.525Z,13.10
2018-10-18T19:25:06.818Z,12.90
2018-10-18T19:27:35.999Z,13.00
2018-10-18T19:30:06.607Z,13.00
2018-10-18T19:32:35.727Z,12.90
2018-10-18T19:35:04.999Z,12.90
2018-10-18T19:37:34.069Z,13.00
2018-10-18T19:40:03.238Z,13.00
2018-10-18T19:42:32.282Z,13.10
2018-10-18T19:45:01.315Z,12.80
2018-10-18T19:47:30.371Z,12.70
2018-10-18T19:49:59.517Z,12.70
2018-10-18T19:52:28.606Z,12.60
2018-10-18T19:54:57.547Z,12.50
2018-10-18T19:57:26.602Z,12.40
2018-10-18T19:59:55.638Z,12.40
2018-10-18T20:02:24.691Z,12.30
2018-10-18T20:04:53.727Z,12.20
2018-10-18T20:07:22.878Z,12.30
2018-10-18T20:09:51.943Z,12.30
2018-10-18T20:12:21.043Z,12.20
2018-10-18T20:14:50.081Z,12.20
2018-10-18T20:17:19.113Z,12.20
2018-10-18T20:19:48.178Z,12.20
2018-10-18T20:22:17.292Z,12.10
2018-10-18T20:24:46.503Z,12.20
2018-10-18T20:27:15.460Z,12.20
2018-10-18T20:29:44.474Z,12.20
2018-10-18T20:32:13.535Z,12.20
2018-10-18T20:34:42.587Z,12.10
2018-10-18T20:37:11.620Z,12.10
2018-10-18T20:39:40.732Z,12.00
2018-10-18T20:42:09.734Z,12.40
2018-10-18T20:44:38.771Z,12.30
2018-10-18T20:47:07.848Z,12.10
2018-10-18T20:49:36.847Z,11.80
2018-10-18T20:52:06.347Z,11.70
2018-10-18T20:54:35.374Z,11.70
2018-10-18T20:57:04.425Z,11.50
2018-10-18T20:59:33.503Z,11.50
2018-10-18T21:02:02.531Z,11.40
2018-10-18T21:04:31.544Z,11.50
2018-10-18T21:07:00.638Z,11.50
2018-10-18T21:09:29.651Z,11.60
2018-10-18T21:11:58.684Z,11.50
2018-10-18T21:14:27.671Z,11.70
2018-10-18T21:16:56.720Z,11.60
2018-10-18T21:19:25.727Z,11.60
2018-10-18T21:21:54.765Z,11.60
2018-10-18T21:24:23.755Z,11.40
2018-10-18T21:26:52.793Z,11.50
2018-10-18T21:29:21.819Z,11.40
2018-10-18T21:31:50.847Z,11.30
2018-10-18T21:34:20.238Z,11.10
2018-10-18T21:36:49.397Z,11.10
2018-10-18T21:39:27.328Z,11.20
2018-10-18T21:41:56.406Z,11.10
2018-10-18T21:44:28.048Z,11.00
2018-10-18T21:46:57.187Z,11.00
2018-10-18T21:49:26.816Z,11.10
2018-10-18T21:51:55.848Z,11.10
2018-10-18T21:54:25.519Z,11.00
2018-10-18T21:56:54.627Z,11.00
2018-10-18T21:59:23.947Z,11.00
2018-10-18T22:01:52.942Z,11.40
2018-10-18T22:04:21.923Z,11.50
2018-10-18T22:06:51.233Z,11.20
2018-10-18T22:09:20.239Z,11.00
2018-10-18T22:11:49.301Z,10.80
2018-10-18T22:14:18.353Z,10.80
2018-10-18T22:16:47.331Z,10.60
2018-10-18T22:19:16.357Z,10.60
2018-10-18T22:21:45.385Z,10.50
2018-10-18T22:24:14.427Z,10.50
2018-10-18T22:26:43.518Z,10.40
2018-10-18T22:29:12.753Z,10.40
2018-10-18T22:31:41.659Z,10.50
2018-10-18T22:34:10.681Z,10.60
2018-10-18T22:36:39.715Z,10.50
2018-10-18T22:39:10.334Z,10.40
2018-10-18T22:41:39.869Z,10.50
2018-10-18T22:44:09.934Z,10.50
2018-10-18T22:46:38.963Z,10.80
2018-10-18T22:49:07.998Z,10.90
2018-10-18T22:51:37.051Z,10.70
2018-10-18T22:54:06.220Z,10.60
2018-10-18T22:56:35.311Z,10.60
2018-10-18T22:59:04.359Z,10.70
2018-10-18T23:01:33.410Z,10.90
2018-10-18T23:04:02.432Z,11.10
2018-10-18T23:06:31.450Z,11.20
2018-10-18T23:09:00.520Z,11.30
2018-10-18T23:11:29.565Z,11.10
2018-10-18T23:13:58.575Z,10.90
2018-10-18T23:16:27.635Z,11.00
2018-10-18T23:18:56.682Z,11.00
2018-10-18T23:21:25.708Z,10.90
2018-10-18T23:23:54.760Z,10.70
2018-10-18T23:26:23.828Z,10.50
2018-10-18T23:28:52.842Z,10.50
2018-10-18T23:31:21.900Z,10.40
2018-10-18T23:33:50.923Z,10.30
2018-10-18T23:36:19.951Z,10.30
2018-10-18T23:38:49.012Z,10.20
2018-10-18T23:41:18.070Z,10.30
2018-10-18T23:43:47.114Z,10.20
2018-10-18T23:46:16.155Z,10.10
2018-10-18T23:48:45.212Z,10.10
2018-10-18T23:51:14.371Z,10.00
2018-10-18T23:53:43.359Z,10.00
2018-10-18T23:56:12.449Z,9.90
2018-10-18T23:58:41.487Z,10.20
